sensor_id;sensor_type;location;lat;lon;timestamp;pressure;altitude;pressure_sealevel;temperature;humidity
79463;BME280;68931;47.286;18.756;2023-07-13T00:00:03;100305.25;;;22.96;74.31
79463;BME280;68931;47.286;18.756;2023-07-13T00:00:40;100300.09;;;22.94;74.50
79463;BME280;68931;47.286;18.756;2023-07-13T00:01:16;100316.94;;;23.03;73.93
79463;BME280;68931;47.286;18.756;2023-07-13T00:01:50;100301.56;;;22.97;73.93
79463;BME280;68931;47.286;18.756;2023-07-13T00:02:22;100322.78;;;23.06;74.19
79463;BME280;68931;47.286;18.756;2023-07-13T00:02:54;100313.59;;;23.01;73.92
79463;BME280;68931;47.286;18.756;2023-07-13T00:03:26;100311.44;;;22.96;73.76
79463;BME280;68931;47.286;18.756;2023-07-13T00:03:59;100324.81;;;23.04;74.14
79463;BME280;68931;47.286;18.756;2023-07-13T00:04:31;100302.97;;;22.84;73.77
79463;BME280;68931;47.286;18.756;2023-07-13T00:05:04;100319.13;;;22.99;74.04
79463;BME280;68931;47.286;18.756;2023-07-13T00:05:36;100319.63;;;23.03;74.03
79463;BME280;68931;47.286;18.756;2023-07-13T00:06:09;100300.41;;;22.91;73.86
79463;BME280;68931;47.286;18.756;2023-07-13T00:06:41;100308.13;;;22.94;73.91
79463;BME280;68931;47.286;18.756;2023-07-13T00:07:18;100307.75;;;22.97;74.29
79463;BME280;68931;47.286;18.756;2023-07-13T00:07:53;100303.09;;;22.91;73.98
79463;BME280;68931;47.286;18.756;2023-07-13T00:08:26;100322.47;;;23.01;74.08
79463;BME280;68931;47.286;18.756;2023-07-13T00:08:59;100284.56;;;22.81;74.16
79463;BME280;68931;47.286;18.756;2023-07-13T00:09:31;100301.44;;;22.90;73.70
79463;BME280;68931;47.286;18.756;2023-07-13T00:10:06;100308.75;;;22.96;73.75
79463;BME280;68931;47.286;18.756;2023-07-13T00:10:40;100314.09;;;22.96;73.45
79463;BME280;68931;47.286;18.756;2023-07-13T00:11:13;100307.13;;;22.95;73.60
79463;BME280;68931;47.286;18.756;2023-07-13T00:11:50;100303.94;;;22.92;73.82
79463;BME280;68931;47.286;18.756;2023-07-13T00:12:56;100300.09;;;22.94;74.03
79463;BME280;68931;47.286;18.756;2023-07-13T00:13:30;100321.47;;;23.02;73.73
79463;BME280;68931;47.286;18.756;2023-07-13T00:14:02;100308.94;;;22.95;73.58
79463;BME280;68931;47.286;18.756;2023-07-13T00:14:34;100295.41;;;22.88;73.41
79463;BME280;68931;47.286;18.756;2023-07-13T00:15:14;100298.75;;;22.90;73.42
79463;BME280;68931;47.286;18.756;2023-07-13T00:15:50;100304.44;;;22.95;73.39
79463;BME280;68931;47.286;18.756;2023-07-13T00:16:22;100298.59;;;22.92;73.64
79463;BME280;68931;47.286;18.756;2023-07-13T00:16:58;100273.19;;;22.79;73.61
79463;BME280;68931;47.286;18.756;2023-07-13T00:17:35;100296.56;;;22.94;73.74
79463;BME280;68931;47.286;18.756;2023-07-13T00:18:07;100302.41;;;22.97;73.86
79463;BME280;68931;47.286;18.756;2023-07-13T00:18:39;100301.75;;;22.95;73.59
79463;BME280;68931;47.286;18.756;2023-07-13T00:19:12;100298.72;;;22.98;73.88
79463;BME280;68931;47.286;18.756;2023-07-13T00:19:44;100291.72;;;22.89;73.72
79463;BME280;68931;47.286;18.756;2023-07-13T00:20:17;100287.38;;;22.88;73.17
79463;BME280;68931;47.286;18.756;2023-07-13T00:20:50;100297.22;;;22.96;73.37
79463;BME280;68931;47.286;18.756;2023-07-13T00:21:28;100279.88;;;22.83;73.80
79463;BME280;68931;47.286;18.756;2023-07-13T00:22:03;100300.41;;;22.99;73.87
79463;BME280;68931;47.286;18.756;2023-07-13T00:22:35;100284.53;;;22.89;73.89
79463;BME280;68931;47.286;18.756;2023-07-13T00:23:07;100285.53;;;22.88;74.03
79463;BME280;68931;47.286;18.756;2023-07-13T00:23:44;100276.53;;;22.81;74.31
79463;BME280;68931;47.286;18.756;2023-07-13T00:24:17;100281.88;;;22.81;73.96
79463;BME280;68931;47.286;18.756;2023-07-13T00:24:55;100279.75;;;22.77;74.80
79463;BME280;68931;47.286;18.756;2023-07-13T00:25:30;100287.75;;;22.85;74.45
79463;BME280;68931;47.286;18.756;2023-07-13T00:26:06;100261.34;;;22.66;74.32
79463;BME280;68931;47.286;18.756;2023-07-13T00:26:40;100264.16;;;22.72;74.78
79463;BME280;68931;47.286;18.756;2023-07-13T00:27:12;100267.53;;;22.74;74.19
79463;BME280;68931;47.286;18.756;2023-07-13T00:27:48;100272.56;;;22.77;74.38
79463;BME280;68931;47.286;18.756;2023-07-13T00:28:20;100268.00;;;22.70;74.31
79463;BME280;68931;47.286;18.756;2023-07-13T00:28:56;100281.75;;;22.75;74.62
79463;BME280;68931;47.286;18.756;2023-07-13T00:29:29;100255.03;;;22.59;74.96
79463;BME280;68931;47.286;18.756;2023-07-13T00:30:01;100255.88;;;22.59;74.54
79463;BME280;68931;47.286;18.756;2023-07-13T00:30:34;100283.88;;;22.71;74.59
79463;BME280;68931;47.286;18.756;2023-07-13T00:31:08;100264.34;;;22.63;74.70
79463;BME280;68931;47.286;18.756;2023-07-13T00:31:49;100275.72;;;22.65;74.96
79463;BME280;68931;47.286;18.756;2023-07-13T00:32:21;100288.25;;;22.64;74.95
79463;BME280;68931;47.286;18.756;2023-07-13T00:32:54;100245.00;;;22.44;75.01
79463;BME280;68931;47.286;18.756;2023-07-13T00:33:32;100276.41;;;22.59;75.30
79463;BME280;68931;47.286;18.756;2023-07-13T00:34:04;100282.59;;;22.59;75.32
79463;BME280;68931;47.286;18.756;2023-07-13T00:34:38;100281.78;;;22.59;75.30
79463;BME280;68931;47.286;18.756;2023-07-13T00:35:10;100285.31;;;22.51;75.21
79463;BME280;68931;47.286;18.756;2023-07-13T00:35:42;100273.41;;;22.45;75.20
79463;BME280;68931;47.286;18.756;2023-07-13T00:36:15;100269.75;;;22.46;75.54
79463;BME280;68931;47.286;18.756;2023-07-13T00:36:49;100251.22;;;22.29;75.90
79463;BME280;68931;47.286;18.756;2023-07-13T00:37:21;100264.59;;;22.37;76.24
79463;BME280;68931;47.286;18.756;2023-07-13T00:37:54;100277.44;;;22.49;75.01
79463;BME280;68931;47.286;18.756;2023-07-13T00:38:26;100242.38;;;22.28;74.95
79463;BME280;68931;47.286;18.756;2023-07-13T00:39:01;100259.41;;;22.27;76.64
79463;BME280;68931;47.286;18.756;2023-07-13T00:39:34;100271.63;;;22.30;76.51
79463;BME280;68931;47.286;18.756;2023-07-13T00:40:07;100279.31;;;22.33;77.29
79463;BME280;68931;47.286;18.756;2023-07-13T00:40:39;100252.56;;;22.17;76.87
79463;BME280;68931;47.286;18.756;2023-07-13T00:41:18;100249.25;;;22.14;76.74
79463;BME280;68931;47.286;18.756;2023-07-13T00:41:50;100253.25;;;22.19;77.07
79463;BME280;68931;47.286;18.756;2023-07-13T00:42:23;100247.59;;;22.13;76.43
79463;BME280;68931;47.286;18.756;2023-07-13T00:42:58;100249.75;;;22.10;77.10
79463;BME280;68931;47.286;18.756;2023-07-13T00:43:31;100244.41;;;22.10;76.95
79463;BME280;68931;47.286;18.756;2023-07-13T00:44:04;100261.09;;;22.20;76.78
79463;BME280;68931;47.286;18.756;2023-07-13T00:44:36;100258.94;;;22.16;77.28
79463;BME280;68931;47.286;18.756;2023-07-13T00:46:21;100270.47;;;22.16;77.43
79463;BME280;68931;47.286;18.756;2023-07-13T00:46:54;100246.91;;;22.03;77.29
79463;BME280;68931;47.286;18.756;2023-07-13T00:47:27;100247.09;;;22.02;77.49
79463;BME280;68931;47.286;18.756;2023-07-13T00:48:00;100242.75;;;22.01;77.30
79463;BME280;68931;47.286;18.756;2023-07-13T00:48:36;100241.06;;;22.00;77.34
79463;BME280;68931;47.286;18.756;2023-07-13T00:49:13;100249.75;;;22.02;77.30
79463;BME280;68931;47.286;18.756;2023-07-13T00:49:46;100239.72;;;21.96;77.74
79463;BME280;68931;47.286;18.756;2023-07-13T00:50:20;100231.69;;;21.88;77.93
79463;BME280;68931;47.286;18.756;2023-07-13T00:50:59;100231.19;;;21.84;77.95
79463;BME280;68931;47.286;18.756;2023-07-13T00:51:45;100243.88;;;21.90;78.17
79463;BME280;68931;47.286;18.756;2023-07-13T00:52:19;100243.72;;;21.84;77.97
79463;BME280;68931;47.286;18.756;2023-07-13T00:52:55;100243.72;;;21.84;78.47
79463;BME280;68931;47.286;18.756;2023-07-13T00:53:32;100243.38;;;21.78;78.25
79463;BME280;68931;47.286;18.756;2023-07-13T00:54:11;100248.56;;;21.80;77.88
79463;BME280;68931;47.286;18.756;2023-07-13T00:54:46;100226.69;;;21.60;79.37
79463;BME280;68931;47.286;18.756;2023-07-13T00:55:18;100223.19;;;21.52;79.88
79463;BME280;68931;47.286;18.756;2023-07-13T00:55:53;100235.69;;;21.59;79.99
79463;BME280;68931;47.286;18.756;2023-07-13T00:56:28;100221.97;;;21.38;80.19
79463;BME280;68931;47.286;18.756;2023-07-13T00:57:05;100258.22;;;21.57;80.83
79463;BME280;68931;47.286;18.756;2023-07-13T00:57:43;100254.53;;;21.58;81.07
79463;BME280;68931;47.286;18.756;2023-07-13T00:58:16;100228.81;;;21.40;80.76
79463;BME280;68931;47.286;18.756;2023-07-13T00:58:49;100251.53;;;21.53;80.55
79463;BME280;68931;47.286;18.756;2023-07-13T00:59:22;100248.34;;;21.49;80.17
79463;BME280;68931;47.286;18.756;2023-07-13T00:59:59;100253.34;;;21.36;80.90
79463;BME280;68931;47.286;18.756;2023-07-13T01:00:41;100254.66;;;21.32;81.03
79463;BME280;68931;47.286;18.756;2023-07-13T01:01:14;100247.31;;;21.26;81.06
79463;BME280;68931;47.286;18.756;2023-07-13T01:01:46;100256.00;;;21.28;81.30
79463;BME280;68931;47.286;18.756;2023-07-13T01:02:19;100246.13;;;21.20;81.22
79463;BME280;68931;47.286;18.756;2023-07-13T01:02:53;100225.88;;;21.01;81.20
79463;BME280;68931;47.286;18.756;2023-07-13T01:03:28;100230.72;;;21.06;81.38
79463;BME280;68931;47.286;18.756;2023-07-13T01:04:01;100237.22;;;21.12;81.52
79463;BME280;68931;47.286;18.756;2023-07-13T01:04:33;100252.28;;;21.21;81.05
79463;BME280;68931;47.286;18.756;2023-07-13T01:05:13;100234.25;;;21.15;81.44
79463;BME280;68931;47.286;18.756;2023-07-13T01:05:50;100244.91;;;21.15;81.63
79463;BME280;68931;47.286;18.756;2023-07-13T01:06:26;100236.72;;;21.08;81.59
79463;BME280;68931;47.286;18.756;2023-07-13T01:06:58;100250.41;;;21.13;81.68
79463;BME280;68931;47.286;18.756;2023-07-13T01:07:33;100253.22;;;21.12;81.24
79463;BME280;68931;47.286;18.756;2023-07-13T01:08:05;100243.53;;;21.02;81.74
79463;BME280;68931;47.286;18.756;2023-07-13T01:09:00;100247.53;;;20.98;81.84
79463;BME280;68931;47.286;18.756;2023-07-13T01:09:33;100220.44;;;20.85;81.82
79463;BME280;68931;47.286;18.756;2023-07-13T01:10:08;100237.16;;;20.95;81.46
79463;BME280;68931;47.286;18.756;2023-07-13T01:10:56;100220.44;;;20.85;81.42
79463;BME280;68931;47.286;18.756;2023-07-13T01:11:28;100237.16;;;20.95;81.79
79463;BME280;68931;47.286;18.756;2023-07-13T01:12:07;100227.69;;;20.93;81.86
79463;BME280;68931;47.286;18.756;2023-07-13T01:12:41;100244.19;;;21.04;81.95
79463;BME280;68931;47.286;18.756;2023-07-13T01:13:16;100246.88;;;21.04;81.58
79463;BME280;68931;47.286;18.756;2023-07-13T01:13:49;100255.06;;;21.11;81.52
79463;BME280;68931;47.286;18.756;2023-07-13T01:14:23;100246.91;;;21.13;81.77
79463;BME280;68931;47.286;18.756;2023-07-13T01:15:00;100222.00;;;20.96;81.11
79463;BME280;68931;47.286;18.756;2023-07-13T01:15:39;100238.72;;;21.06;81.54
79463;BME280;68931;47.286;18.756;2023-07-13T01:16:17;100212.00;;;20.90;81.80
79463;BME280;68931;47.286;18.756;2023-07-13T01:17:05;100228.69;;;21.00;81.39
79463;BME280;68931;47.286;18.756;2023-07-13T01:17:37;100220.44;;;20.85;81.73
79463;BME280;68931;47.286;18.756;2023-07-13T01:18:12;100222.47;;;20.83;81.93
79463;BME280;68931;47.286;18.756;2023-07-13T01:18:44;100205.75;;;20.73;81.39
79463;BME280;68931;47.286;18.756;2023-07-13T01:19:36;100247.53;;;20.98;82.04
79463;BME280;68931;47.286;18.756;2023-07-13T01:20:09;100233.47;;;20.88;82.29
79463;BME280;68931;47.286;18.756;2023-07-13T01:20:46;100231.13;;;20.85;81.88
79463;BME280;68931;47.286;18.756;2023-07-13T01:21:19;100222.47;;;20.83;81.87
79463;BME280;68931;47.286;18.756;2023-07-13T01:21:56;100211.59;;;20.77;82.27
79463;BME280;68931;47.286;18.756;2023-07-13T01:22:31;100224.47;;;20.81;82.05
79463;BME280;68931;47.286;18.756;2023-07-13T01:23:07;100247.34;;;20.92;82.09
79463;BME280;68931;47.286;18.756;2023-07-13T01:23:40;100228.28;;;20.79;82.55
79463;BME280;68931;47.286;18.756;2023-07-13T01:24:12;100235.63;;;20.85;82.06
79463;BME280;68931;47.286;18.756;2023-07-13T01:24:46;100251.84;;;20.91;82.17
79463;BME280;68931;47.286;18.756;2023-07-13T01:25:20;100223.78;;;20.79;81.89
79463;BME280;68931;47.286;18.756;2023-07-13T01:25:53;100240.00;;;20.94;82.11
79463;BME280;68931;47.286;18.756;2023-07-13T01:26:29;100204.09;;;20.72;82.37
79463;BME280;68931;47.286;18.756;2023-07-13T01:27:05;100234.16;;;20.90;81.51
79463;BME280;68931;47.286;18.756;2023-07-13T01:27:37;100230.50;;;20.91;82.13
79463;BME280;68931;47.286;18.756;2023-07-13T01:28:13;100239.16;;;20.93;81.84
79463;BME280;68931;47.286;18.756;2023-07-13T01:28:45;100216.09;;;20.76;81.88
79463;BME280;68931;47.286;18.756;2023-07-13T01:29:17;100235.31;;;20.88;82.30
79463;BME280;68931;47.286;18.756;2023-07-13T01:29:51;100233.28;;;20.82;82.31
79463;BME280;68931;47.286;18.756;2023-07-13T01:30:24;100224.91;;;20.77;82.94
79463;BME280;68931;47.286;18.756;2023-07-13T01:30:57;100224.41;;;20.73;82.46
79463;BME280;68931;47.286;18.756;2023-07-13T01:31:33;100214.56;;;20.65;83.13
79463;BME280;68931;47.286;18.756;2023-07-13T01:32:05;100214.56;;;20.65;82.57
79463;BME280;68931;47.286;18.756;2023-07-13T01:32:40;100223.06;;;20.69;82.39
79463;BME280;68931;47.286;18.756;2023-07-13T01:33:17;100222.59;;;20.74;82.82
79463;BME280;68931;47.286;18.756;2023-07-13T01:33:50;100208.69;;;20.62;82.76
79463;BME280;68931;47.286;18.756;2023-07-13T01:34:22;100208.16;;;20.58;83.21
79463;BME280;68931;47.286;18.756;2023-07-13T01:34:54;100217.38;;;20.64;82.71
79463;BME280;68931;47.286;18.756;2023-07-13T01:35:27;100225.00;;;20.59;83.29
79463;BME280;68931;47.286;18.756;2023-07-13T01:35:59;100199.31;;;20.50;82.90
79463;BME280;68931;47.286;18.756;2023-07-13T01:36:31;100213.84;;;20.55;83.19
79463;BME280;68931;47.286;18.756;2023-07-13T01:37:06;100225.69;;;20.61;83.52
79463;BME280;68931;47.286;18.756;2023-07-13T01:37:39;100221.19;;;20.61;83.64
79463;BME280;68931;47.286;18.756;2023-07-13T01:38:15;100221.34;;;20.60;83.49
79463;BME280;68931;47.286;18.756;2023-07-13T01:38:49;100200.78;;;20.44;83.76
79463;BME280;68931;47.286;18.756;2023-07-13T01:39:22;100189.09;;;20.37;83.07
79463;BME280;68931;47.286;18.756;2023-07-13T01:39:54;100192.25;;;20.41;84.13
79463;BME280;68931;47.286;18.756;2023-07-13T01:40:27;100174.72;;;20.30;83.67
79463;BME280;68931;47.286;18.756;2023-07-13T01:40:59;100213.31;;;20.52;83.56
79463;BME280;68931;47.286;18.756;2023-07-13T01:41:34;100210.44;;;20.45;83.72
79463;BME280;68931;47.286;18.756;2023-07-13T01:42:07;100202.25;;;20.39;84.06
79463;BME280;68931;47.286;18.756;2023-07-13T01:42:39;100210.09;;;20.40;83.89
79463;BME280;68931;47.286;18.756;2023-07-13T01:43:12;100210.25;;;20.39;84.23
79463;BME280;68931;47.286;18.756;2023-07-13T01:43:44;100202.41;;;20.37;84.23
79463;BME280;68931;47.286;18.756;2023-07-13T01:44:16;100227.78;;;20.49;83.55
79463;BME280;68931;47.286;18.756;2023-07-13T01:44:48;100221.81;;;20.47;83.82
79463;BME280;68931;47.286;18.756;2023-07-13T01:45:20;100222.09;;;20.44;83.98
79463;BME280;68931;47.286;18.756;2023-07-13T01:45:53;100206.91;;;20.37;83.62
79463;BME280;68931;47.286;18.756;2023-07-13T01:46:28;100196.81;;;20.22;83.57
79463;BME280;68931;47.286;18.756;2023-07-13T01:47:03;100230.50;;;20.32;84.08
79463;BME280;68931;47.286;18.756;2023-07-13T01:47:35;100216.59;;;20.20;84.28
79463;BME280;68931;47.286;18.756;2023-07-13T01:48:07;100243.22;;;20.38;84.40
79463;BME280;68931;47.286;18.756;2023-07-13T01:48:42;100204.72;;;20.14;84.33
79463;BME280;68931;47.286;18.756;2023-07-13T01:49:13;100239.56;;;20.39;83.89
79463;BME280;68931;47.286;18.756;2023-07-13T01:49:46;100218.63;;;20.26;84.27
79463;BME280;68931;47.286;18.756;2023-07-13T01:50:19;100219.78;;;20.23;83.99
79463;BME280;68931;47.286;18.756;2023-07-13T01:50:51;100202.41;;;20.11;83.78
79463;BME280;68931;47.286;18.756;2023-07-13T01:51:23;100229.66;;;20.31;84.29
79463;BME280;68931;47.286;18.756;2023-07-13T01:51:56;100234.16;;;20.31;84.22
79463;BME280;68931;47.286;18.756;2023-07-13T01:52:36;100198.34;;;20.07;84.46
79463;BME280;68931;47.286;18.756;2023-07-13T01:53:09;100213.41;;;20.16;84.54
79463;BME280;68931;47.286;18.756;2023-07-13T01:53:41;100215.91;;;20.18;84.28
79463;BME280;68931;47.286;18.756;2023-07-13T01:54:13;100214.41;;;20.15;84.22
79463;BME280;68931;47.286;18.756;2023-07-13T01:54:45;100232.78;;;20.26;84.74
79463;BME280;68931;47.286;18.756;2023-07-13T01:55:17;100210.88;;;20.15;84.85
79463;BME280;68931;47.286;18.756;2023-07-13T01:55:49;100209.56;;;20.11;84.78
79463;BME280;68931;47.286;18.756;2023-07-13T01:56:22;100220.94;;;20.21;84.85
79463;BME280;68931;47.286;18.756;2023-07-13T01:56:54;100219.56;;;20.17;84.95
79463;BME280;68931;47.286;18.756;2023-07-13T01:57:26;100222.91;;;20.19;84.48
79463;BME280;68931;47.286;18.756;2023-07-13T01:57:58;100209.50;;;20.03;84.19
79463;BME280;68931;47.286;18.756;2023-07-13T01:58:31;100229.72;;;20.13;85.12
79463;BME280;68931;47.286;18.756;2023-07-13T01:59:06;100224.16;;;20.07;85.41
79463;BME280;68931;47.286;18.756;2023-07-13T01:59:38;100217.63;;;20.01;85.23
79463;BME280;68931;47.286;18.756;2023-07-13T02:00:13;100203.72;;;19.89;85.20
79463;BME280;68931;47.286;18.756;2023-07-13T02:00:48;100223.25;;;19.98;85.39
79463;BME280;68931;47.286;18.756;2023-07-13T02:01:20;100218.41;;;19.94;85.16
79463;BME280;68931;47.286;18.756;2023-07-13T02:01:52;100212.19;;;19.85;84.97
79463;BME280;68931;47.286;18.756;2023-07-13T02:02:24;100218.88;;;19.89;85.16
79463;BME280;68931;47.286;18.756;2023-07-13T02:02:57;100216.59;;;19.94;85.47
79463;BME280;68931;47.286;18.756;2023-07-13T02:03:32;100227.16;;;20.04;85.14
79463;BME280;68931;47.286;18.756;2023-07-13T02:04:04;100221.13;;;20.02;85.01
79463;BME280;68931;47.286;18.756;2023-07-13T02:04:36;100194.25;;;19.87;85.63
79463;BME280;68931;47.286;18.756;2023-07-13T02:05:08;100227.00;;;20.05;84.97
79463;BME280;68931;47.286;18.756;2023-07-13T02:05:40;100231.50;;;20.05;85.24
79463;BME280;68931;47.286;18.756;2023-07-13T02:06:13;100226.63;;;20.00;84.99
79463;BME280;68931;47.286;18.756;2023-07-13T02:06:45;100219.25;;;19.94;85.27
79463;BME280;68931;47.286;18.756;2023-07-13T02:07:17;100203.22;;;19.86;85.63
79463;BME280;68931;47.286;18.756;2023-07-13T02:07:49;100224.25;;;19.97;85.58
79463;BME280;68931;47.286;18.756;2023-07-13T02:08:21;100207.22;;;19.90;85.39
79463;BME280;68931;47.286;18.756;2023-07-13T02:08:54;100206.53;;;19.88;85.77
79463;BME280;68931;47.286;18.756;2023-07-13T02:09:26;100218.94;;;19.97;85.48
79463;BME280;68931;47.286;18.756;2023-07-13T02:09:59;100217.28;;;19.96;85.53
79463;BME280;68931;47.286;18.756;2023-07-13T02:10:31;100210.03;;;19.88;85.52
79463;BME280;68931;47.286;18.756;2023-07-13T02:11:03;100214.22;;;19.91;85.79
79463;BME280;68931;47.286;18.756;2023-07-13T02:11:35;100232.31;;;20.05;85.37
79463;BME280;68931;47.286;18.756;2023-07-13T02:12:12;100224.50;;;20.04;84.66
79463;BME280;68931;47.286;18.756;2023-07-13T02:12:44;100224.94;;;19.99;84.72
79463;BME280;68931;47.286;18.756;2023-07-13T02:13:17;100220.09;;;19.95;84.61
79463;BME280;68931;47.286;18.756;2023-07-13T02:13:49;100212.88;;;19.87;84.53
79463;BME280;68931;47.286;18.756;2023-07-13T02:14:21;100210.88;;;19.89;84.54
79463;BME280;68931;47.286;18.756;2023-07-13T02:14:53;100189.16;;;19.76;85.00
79463;BME280;68931;47.286;18.756;2023-07-13T02:15:25;100189.44;;;19.73;85.08
79463;BME280;68931;47.286;18.756;2023-07-13T02:15:57;100215.06;;;19.91;84.79
79463;BME280;68931;47.286;18.756;2023-07-13T02:16:30;100219.75;;;19.98;84.43
79463;BME280;68931;47.286;18.756;2023-07-13T02:17:05;100222.59;;;19.96;84.84
79463;BME280;68931;47.286;18.756;2023-07-13T02:17:40;100204.66;;;19.80;84.54
79463;BME280;68931;47.286;18.756;2023-07-13T02:18:12;100229.56;;;19.97;84.76
79463;BME280;68931;47.286;18.756;2023-07-13T02:18:48;100227.25;;;19.94;84.80
79463;BME280;68931;47.286;18.756;2023-07-13T02:19:23;100234.25;;;19.95;84.52
79463;BME280;68931;47.286;18.756;2023-07-13T02:19:55;100209.00;;;19.81;84.80
79463;BME280;68931;47.286;18.756;2023-07-13T02:20:28;100234.06;;;19.97;85.17
79463;BME280;68931;47.286;18.756;2023-07-13T02:21:00;100221.72;;;19.87;84.53
79463;BME280;68931;47.286;18.756;2023-07-13T02:21:32;100223.19;;;19.90;84.74
79463;BME280;68931;47.286;18.756;2023-07-13T02:22:07;100201.47;;;19.77;84.63
79463;BME280;68931;47.286;18.756;2023-07-13T02:22:42;100218.03;;;19.88;84.50
79463;BME280;68931;47.286;18.756;2023-07-13T02:23:14;100206.19;;;19.83;84.18
79463;BME280;68931;47.286;18.756;2023-07-13T02:23:46;100198.88;;;19.85;84.58
79463;BME280;68931;47.286;18.756;2023-07-13T02:24:18;100208.41;;;19.87;83.98
79463;BME280;68931;47.286;18.756;2023-07-13T02:24:52;100221.06;;;19.94;84.10
79463;BME280;68931;47.286;18.756;2023-07-13T02:25:24;100221.53;;;19.89;84.35
79463;BME280;68931;47.286;18.756;2023-07-13T02:25:59;100197.13;;;19.76;84.04
79463;BME280;68931;47.286;18.756;2023-07-13T02:26:35;100203.16;;;19.78;84.21
79463;BME280;68931;47.286;18.756;2023-07-13T02:27:07;100193.50;;;19.77;84.47
79463;BME280;68931;47.286;18.756;2023-07-13T02:27:39;100207.16;;;19.82;84.64
79463;BME280;68931;47.286;18.756;2023-07-13T02:28:11;100206.19;;;19.83;84.61
79463;BME280;68931;47.286;18.756;2023-07-13T02:28:46;100228.22;;;19.93;84.67
79463;BME280;68931;47.286;18.756;2023-07-13T02:29:18;100217.56;;;19.93;84.45
79463;BME280;68931;47.286;18.756;2023-07-13T02:29:50;100211.34;;;19.84;84.97
79463;BME280;68931;47.286;18.756;2023-07-13T02:30:23;100219.56;;;19.91;85.20
79463;BME280;68931;47.286;18.756;2023-07-13T02:31:06;100197.84;;;19.78;84.64
79463;BME280;68931;47.286;18.756;2023-07-13T02:31:39;100210.38;;;19.85;84.89
79463;BME280;68931;47.286;18.756;2023-07-13T02:32:11;100214.03;;;19.84;84.57
79463;BME280;68931;47.286;18.756;2023-07-13T02:32:43;100194.09;;;19.71;84.41
79463;BME280;68931;47.286;18.756;2023-07-13T02:33:16;100184.22;;;19.63;84.61
79463;BME280;68931;47.286;18.756;2023-07-13T02:33:48;100208.78;;;19.75;84.73
79463;BME280;68931;47.286;18.756;2023-07-13T02:34:23;100191.34;;;19.63;84.56
79463;BME280;68931;47.286;18.756;2023-07-13T02:34:55;100199.75;;;19.68;84.42
79463;BME280;68931;47.286;18.756;2023-07-13T02:35:27;100216.06;;;19.73;84.45
79463;BME280;68931;47.286;18.756;2023-07-13T02:35:59;100194.34;;;19.60;84.28
79463;BME280;68931;47.286;18.756;2023-07-13T02:36:34;100190.69;;;19.61;84.47
79463;BME280;68931;47.286;18.756;2023-07-13T02:37:06;100211.38;;;19.67;84.52
79463;BME280;68931;47.286;18.756;2023-07-13T02:37:38;100208.72;;;19.67;84.50
79463;BME280;68931;47.286;18.756;2023-07-13T02:38:10;100195.34;;;19.59;84.77
79463;BME280;68931;47.286;18.756;2023-07-13T02:38:42;100201.34;;;19.61;85.09
79463;BME280;68931;47.286;18.756;2023-07-13T02:39:14;100196.75;;;19.53;85.08
79463;BME280;68931;47.286;18.756;2023-07-13T02:39:47;100190.25;;;19.47;85.76
79463;BME280;68931;47.286;18.756;2023-07-13T02:40:19;100206.44;;;19.54;85.26
79463;BME280;68931;47.286;18.756;2023-07-13T02:40:52;100188.16;;;19.41;85.26
79463;BME280;68931;47.286;18.756;2023-07-13T02:41:23;100200.16;;;19.45;85.50
79463;BME280;68931;47.286;18.756;2023-07-13T02:41:56;100206.22;;;19.47;85.45
79463;BME280;68931;47.286;18.756;2023-07-13T02:42:28;100193.94;;;19.37;85.37
79463;BME280;68931;47.286;18.756;2023-07-13T02:43:00;100204.81;;;19.43;85.26
79463;BME280;68931;47.286;18.756;2023-07-13T02:43:32;100212.81;;;19.43;85.53
79463;BME280;68931;47.286;18.756;2023-07-13T02:44:06;100208.16;;;19.45;85.67
79463;BME280;68931;47.286;18.756;2023-07-13T02:44:40;100203.97;;;19.43;85.82
79463;BME280;68931;47.286;18.756;2023-07-13T02:45:12;100218.88;;;19.53;85.26
79463;BME280;68931;47.286;18.756;2023-07-13T02:45:45;100229.78;;;19.60;85.30
79463;BME280;68931;47.286;18.756;2023-07-13T02:46:18;100199.19;;;19.46;84.93
79463;BME280;68931;47.286;18.756;2023-07-13T02:46:51;100203.66;;;19.46;84.74
79463;BME280;68931;47.286;18.756;2023-07-13T02:47:23;100211.25;;;19.50;84.70
79463;BME280;68931;47.286;18.756;2023-07-13T02:47:58;100200.78;;;19.39;84.69
79463;BME280;68931;47.286;18.756;2023-07-13T02:48:30;100203.53;;;19.47;84.72
79463;BME280;68931;47.286;18.756;2023-07-13T02:49:05;100207.63;;;19.42;84.81
79463;BME280;68931;47.286;18.756;2023-07-13T02:49:37;100199.50;;;19.43;84.78
79463;BME280;68931;47.286;18.756;2023-07-13T02:50:12;100206.47;;;19.44;85.15
79463;BME280;68931;47.286;18.756;2023-07-13T02:50:44;100216.56;;;19.50;85.44
79463;BME280;68931;47.286;18.756;2023-07-13T02:51:17;100210.16;;;19.43;85.41
79463;BME280;68931;47.286;18.756;2023-07-13T02:51:49;100201.47;;;19.41;85.30
79463;BME280;68931;47.286;18.756;2023-07-13T02:52:21;100195.59;;;19.38;85.38
79463;BME280;68931;47.286;18.756;2023-07-13T02:52:56;100203.16;;;19.42;85.61
79463;BME280;68931;47.286;18.756;2023-07-13T02:53:28;100202.59;;;19.39;85.46
79463;BME280;68931;47.286;18.756;2023-07-13T02:54:01;100204.06;;;19.33;85.67
79463;BME280;68931;47.286;18.756;2023-07-13T02:54:34;100211.41;;;19.39;85.07
79463;BME280;68931;47.286;18.756;2023-07-13T02:55:06;100208.22;;;19.36;84.91
79463;BME280;68931;47.286;18.756;2023-07-13T02:55:39;100199.88;;;19.31;85.67
79463;BME280;68931;47.286;18.756;2023-07-13T02:56:18;100223.97;;;19.47;85.37